Terminal Aerodrome Forecast
Issued by NWS Goodland, KS

Home | Current Version | Previous Version | Text Only | Print | Product List | Glossary On
Versions: 1 2 3 4 5 6 7 8 9 10 11 12 13 14 15 16 17 18 19 20 21 22 23 24 25 26 27
000
FTUS43 KGLD 211741
TAFGLD
TAF
KGLD 211741Z 2118/2218 17013KT P6SM BKN030 OVC060
     FM220100 14015KT P6SM FEW035 OVC060
     FM220500 15010KT 5SM BR VCSH OVC025
     FM220700 15013KT 2SM SHRA BR OVC006
     FM221300 15011KT 1 1/2SM BR OVC003
     FM221600 15013KT 4SM BR OVC006=

USA.gov is the U.S. government's official web portal to all federal, state and local government web resources and services.